»·PEaware :: N104CT KAPA-KASE

N104CT :: KAPA-KASE

FLIGHT INFORMATION

Flight Status: Arrived
Operator: Privately registered:
United States
More flights under this callsign
Pilot: Eric M. (17640)
Aircraft: CESSNA 750 CITATION 10
(C750)
More flights by this aircraft type
Origin: KAPA Centennial
United States
Destination: KASE Aspen-Pitkin Co/Sardy
United States
More flights between these airports :: More routes between these airports
Route: CONNR4 BULDG AJAXX
File this flight plan on PilotEdge
Remarks:
Altitude:
(Current/Filed)
22,000ft
Speed:
(Current/Filed)
450kts
Departed: 07-Jan-18 04:05 PM
Arrived: 07-Jan-18 04:34 PM
Distance/Time
Traveled:
96nm/0:29
Distance/Time
To Go:
Arrived

Flight Plot

Page will automatically refresh every two minutes.

Flight plan parsing failed; only flown route is shown


Map Options




Map Legend


Flown Route
Filed Route
Departure Airport
Arrival Airport
Navaid (VOR, NDB)
Fix

Horizontal Profiles

Position Reports

Time Latitude Longitude Heading Altitude Ground
Speed
07-Jan-18 15:38 39.563845 -104.847323 267 5887ft 0kts
07-Jan-18 15:39 39.563845 -104.847325 267 5887ft 0kts
07-Jan-18 15:40 39.563845 -104.847326 267 5887ft 0kts
07-Jan-18 15:41 39.563845 -104.847328 267 5887ft 0kts
07-Jan-18 15:42 39.563845 -104.847330 267 5887ft 0kts
07-Jan-18 15:43 39.563845 -104.847331 267 5887ft 0kts
07-Jan-18 15:44 39.563845 -104.847333 267 5887ft 0kts
07-Jan-18 15:45 39.563845 -104.847335 267 5887ft 0kts
07-Jan-18 15:46 39.563845 -104.847336 267 5887ft 0kts
07-Jan-18 15:47 39.563845 -104.847338 267 5887ft 0kts
07-Jan-18 15:48 39.563845 -104.847339 267 5887ft 0kts
07-Jan-18 15:49 39.563845 -104.847341 267 5887ft 0kts
07-Jan-18 15:50 39.563844 -104.847343 267 5887ft 0kts
07-Jan-18 15:51 39.563526 -104.847280 269 5887ft 0kts
07-Jan-18 15:52 39.563526 -104.847281 269 5887ft 0kts
07-Jan-18 15:53 39.563526 -104.847283 269 5887ft 0kts
07-Jan-18 15:54 39.563526 -104.847284 269 5887ft 0kts
07-Jan-18 15:55 39.563526 -104.847286 269 5887ft 0kts
07-Jan-18 15:56 39.563526 -104.847287 269 5887ft 0kts
07-Jan-18 15:57 39.563526 -104.847289 269 5887ft 0kts
07-Jan-18 15:58 39.563526 -104.847291 269 5887ft 0kts
07-Jan-18 15:59 39.563526 -104.847292 269 5887ft 0kts
07-Jan-18 16:01 39.563526 -104.847296 269 5887ft 0kts
07-Jan-18 16:02 39.563526 -104.847297 269 5887ft 0kts
07-Jan-18 16:03 39.563526 -104.847299 269 5887ft 0kts
07-Jan-18 16:04 39.564618 -104.849163 356 5887ft 21kts
07-Jan-18 16:05 39.569419 -104.849366 357 5887ft 17kts
07-Jan-18 16:06 39.574328 -104.849597 357 5887ft 24kts
07-Jan-18 16:07 39.579169 -104.849852 0 5887ft 0kts
07-Jan-18 16:08 39.583253 -104.850022 357 5887ft 20kts
07-Jan-18 16:09 39.584094 -104.850279 276 5887ft 0kts
07-Jan-18 16:10 39.583828 -104.851458 180 5887ft 0kts
07-Jan-18 16:11 39.556669 -104.850160 177 6072ft 193kts
07-Jan-18 16:12 39.496538 -104.851627 187 8222ft 229kts
07-Jan-18 16:13 39.432893 -104.855829 201 9869ft 264kts
07-Jan-18 16:14 39.408190 -104.946002 277 11671ft 315kts
07-Jan-18 16:15 39.418836 -105.064627 282 14045ft 330kts
07-Jan-18 16:16 39.434388 -105.177698 285 17564ft 317kts
07-Jan-18 16:17 39.454890 -105.290560 301 20067ft 328kts
07-Jan-18 16:18 39.514493 -105.383814 317 21885ft 354kts
07-Jan-18 16:19 39.580924 -105.482378 311 22201ft 368kts
07-Jan-18 16:20 39.647698 -105.585557 311 22233ft 376kts
07-Jan-18 16:21 39.699946 -105.701887 278 22236ft 394kts
07-Jan-18 16:22 39.679891 -105.845068 263 22252ft 405kts
07-Jan-18 16:23 39.662447 -105.988778 267 22263ft 403kts
07-Jan-18 16:24 39.646985 -106.133258 266 22272ft 404kts
07-Jan-18 16:25 39.630391 -106.276126 266 22245ft 372kts
07-Jan-18 16:26 39.613220 -106.393723 263 19964ft 301kts
07-Jan-18 16:27 39.596103 -106.490650 266 18586ft 249kts
07-Jan-18 16:28 39.582313 -106.573416 265 17283ft 229kts
07-Jan-18 16:29 39.568493 -106.653818 264 15960ft 222kts
07-Jan-18 16:30 39.547396 -106.730038 274 15996ft 222kts
07-Jan-18 16:31 39.550761 -106.809635 279 15931ft 214kts
07-Jan-18 16:32 39.546352 -106.886028 259 14580ft 218kts
07-Jan-18 16:33 39.520832 -106.952577 236 13996ft 192kts
07-Jan-18 16:34 39.477595 -106.978839 180 13943ft 172kts
07-Jan-18 16:35 39.425494 -106.963428 169 13934ft 215kts
07-Jan-18 16:36 39.369835 -106.938214 160 12372ft 208kts
07-Jan-18 16:37 39.321728 -106.913815 159 9971ft 139kts
07-Jan-18 16:38 39.280507 -106.896489 156 8988ft 160kts
07-Jan-18 16:39 39.245077 -106.879317 160 7967ft 150kts
07-Jan-18 16:40 39.223254 -106.868477 83 7824ft 10kts
07-Jan-18 16:41 39.221803 -106.866965 161 7824ft 33kts
07-Jan-18 16:42 39.221378 -106.866508 335 7824ft 0kts
07-Jan-18 16:43 39.221379 -106.866509 335 7824ft 0kts
07-Jan-18 16:44 39.221380 -106.866509 335 7824ft 0kts
07-Jan-18 16:45 39.221382 -106.866510 335 7824ft 0kts
07-Jan-18 16:46 39.221382 -106.866510 335 7824ft 0kts

Navigation Log

Ident Type
Flight plan parsing failed, navigation log unavailable